ボゴタ の空港の天気 - METARとTAF

エルドラド国際空港(ボコダ) ( SKBO / BOG ) - コロンビア ボゴタ
飛行場実況気象(Metar)
観測時間11/27 03:00 COT (11/27 08:00 UTC)
風向・風速北西 2m/s
視程10km以上
天気現象
全天の8割程度の雲 雲底高度 610m
気温12℃
湿度94%
気圧1025hPa
METARSKBO 270800Z 31004KT 9999 BKN020 12/11 Q1025 NOSIG RMK A3029
過去の天気等 Google飛行場航空写真 Wunderground天気予報

過去48時間のMETAR

飛行場予報(TAF)
発表時間: 11/26 23:30 COT (11/27 04:30 UTC)
予報対象時間: 27日1時 COT ~ 28日1時 COT
風向・風速不定 1m/s
視程10km以上
少しの雲 雲底高度 460m
全天の8割程度の雲 雲底高度 2130m
27日1時 COT ~ 27日4時 COT に一時的に
天気現象霧雨
全天の4割程度の雲 雲底高度 460m
27日4時 COT ~ 27日8時 COT に一時的に
視程5000m
天気現象霧雨 もや
全天の4割程度の雲 雲底高度 300m
27日9時 COT ~ 27日11時 COT に徐々に
風向・風速西 6m/s
全天の4割程度の雲 雲底高度 610m
27日13時 COT ~ 27日16時 COT に 確率 40% で一時的に
天気現象雷雨
全天の8割程度の積乱雲 雲底高度 520m
27日19時 COT ~ 27日21時 COT に徐々に
風向・風速不定 1m/s
少しの雲 雲底高度 460m
全天の8割程度の雲 雲底高度 2130m
TAF SKBO 270430Z 2706/2806 VRB02KT 9999 FEW015 BKN070
TEMPO 2706/2709 DZ SCT015
TEMPO 2709/2713 5000 DZ BR SCT010
BECMG 2714/2716 27012KT SCT020
PROB40 TEMPO 2718/2721 TSRA BKN017CB
BECMG 2800/2802 VRB02KT FEW015 BKN070 TX19/2718Z TN10/2710Z